Hauptseite
METAR-TAF:

METAR-TAF

Flughäfen :

Lydd, England

Breite: 50-57N, Länge: 000-56E, Höhe: 3 m

Beobachtung

Neuester Wetterbericht von vor 14 Minuten, um 13:20 UTC
Wind 14 kt aus Südwest
Temperatur 19°C
Luftfeuchtigkeit 60%
Luftdruck 1017 hPa
Sichtweite 10 km oder mehr
keine Wolken unter 1500 m und keine Kumulonimbus oder Gewitterwolken

METAR: EGMD 231320Z 22014KT CAVOK 19/11 Q1017

Zeit: 14:34 (13:34 UTC)

Prognose

Neuester Wetterbericht von vor 2 Stunden und 27 Minuten, um 11:07 UTC
Gültige Prognose vom 23 um 12 UTC bis 23 um 21 UTC
Wind 10 kt aus Süd/Südwest
Sichtweite 10 km oder mehr
Leicht bewölkt in der Höhe von 4500 ft
Übergehend zu
vom 23 um 18 UTC bis 23 um 21 UTC
Wind 3 kt aus unterschiedlichen Richtungen

TAF: EGMD 231107Z 2312/2321 20010KT 9999 FEW045 BECMG 2318/2321 VRB03KT

Wetterbeobachtungen und Prognosen von mehr als 4000 Flughäfen (METAR und TAF Bericht).

Die verfügbaren Stationen werden durch gelbe und rote Markierungen auf der Karte dargestellt.

Führen Sie die Maus auf sie, um den Namen der Station zu sehen.

Darauf klicken, um die Beobachtung von Wetterbeobachtungen und Prognosen zu sehen.

Um die Karte zu ändern : klicken Sie auf den grünen Tasten mit einem schwarzen Kreuz Zum Vergrößern, auf den grünen Button mit einem Gedankenstrich zu verkleinern, oder auf die grünen Pfeile für benachbarte Karten.


METAR-TAF: